»·PEaware :: N172JS KSNA-KSMO

N172JS :: KSNA-KSMO

FLIGHT INFORMATION

Flight Status: Arrived
Operator: Privately registered:
United States
More flights under this callsign
Pilot: Peter Hoover (12565)
Aircraft: CESSNA 172 SKYHAWK
(C172)
More flights by this aircraft type
Origin: KSNA John Wayne-Orange Co
United States
Destination: KSMO Santa Monica Mun
United States
More flights between these airports :: More routes between these airports
Route: +SLI V8 POXKU V363 BAYJY V186 DARTS
File this flight plan on PilotEdge
Remarks: CSTN9
Altitude:
(Current/Filed)
6,000ft
Speed:
(Current/Filed)
110kts
Departed: 12-Aug-17 09:48 AM
Arrived: 12-Aug-17 11:02 AM
Distance/Time
Traveled:
36nm/1:14
Distance/Time
To Go:
Arrived

Flight Plot

Page will automatically refresh every two minutes.


Map Options




Map Legend


Flown Route
Filed Route
Departure Airport
Arrival Airport
Navaid (VOR, NDB)
Fix

Horizontal Profiles

Position Reports

Time Latitude Longitude Heading Altitude Ground
Speed
12-Aug-17 09:37 33.671172 -117.867614 32 49ft 0kts
12-Aug-17 09:38 33.671172 -117.867614 32 49ft 0kts
12-Aug-17 09:39 33.671172 -117.867614 32 49ft 0kts
12-Aug-17 09:40 33.671172 -117.867614 32 49ft 0kts
12-Aug-17 09:41 33.671172 -117.867614 32 49ft 0kts
12-Aug-17 09:42 33.671172 -117.867614 32 49ft 0kts
12-Aug-17 09:43 33.671172 -117.867614 32 49ft 0kts
12-Aug-17 09:44 33.671172 -117.867614 32 49ft 0kts
12-Aug-17 09:45 33.671172 -117.867614 32 49ft 0kts
12-Aug-17 09:46 33.671172 -117.867614 32 49ft 0kts
12-Aug-17 09:47 33.671235 -117.867573 25 49ft 1kts
12-Aug-17 09:48 33.672901 -117.867280 6 48ft 24kts
12-Aug-17 09:49 33.677186 -117.865142 28 42ft 30kts
12-Aug-17 09:50 33.679958 -117.864248 218 39ft 19kts
12-Aug-17 09:51 33.671778 -117.869670 208 247ft 76kts
12-Aug-17 09:52 33.664755 -117.878594 231 580ft 86kts
12-Aug-17 09:53 33.656990 -117.890248 231 912ft 92kts
12-Aug-17 09:54 33.649157 -117.902008 232 1275ft 91kts
12-Aug-17 09:55 33.641411 -117.913600 231 1672ft 88kts
12-Aug-17 09:56 33.634509 -117.923980 231 2047ft 84kts
12-Aug-17 09:57 33.627295 -117.934870 230 2488ft 76kts
12-Aug-17 09:58 33.621043 -117.944159 228 2873ft 70kts
12-Aug-17 09:59 33.614638 -117.953312 249 3227ft 67kts
12-Aug-17 10:00 33.617153 -117.963354 309 3581ft 63kts
12-Aug-17 10:01 33.623651 -117.971021 309 3898ft 66kts
12-Aug-17 10:02 33.630162 -117.980509 303 4183ft 73kts
12-Aug-17 10:03 33.636811 -117.990485 303 4469ft 80kts
12-Aug-17 10:04 33.644760 -118.002285 304 4759ft 87kts
12-Aug-17 10:05 33.653054 -118.014554 305 5020ft 91kts
12-Aug-17 10:06 33.661716 -118.027347 306 5281ft 93kts
12-Aug-17 10:07 33.670069 -118.039707 304 5533ft 94kts
12-Aug-17 10:08 33.678132 -118.051650 304 5837ft 91kts
12-Aug-17 10:09 33.686452 -118.064037 306 5980ft 102kts
12-Aug-17 10:10 33.700469 -118.084849 306 5970ft 111kts
12-Aug-17 10:11 33.717439 -118.109903 306 5964ft 113kts
12-Aug-17 10:12 33.729542 -118.127714 305 5971ft 113kts
12-Aug-17 10:13 33.739776 -118.142867 305 5967ft 113kts
12-Aug-17 10:14 33.749539 -118.157376 305 5968ft 113kts
12-Aug-17 10:15 33.759633 -118.172392 305 5968ft 113kts
12-Aug-17 10:16 33.769511 -118.187089 305 5973ft 114kts
12-Aug-17 10:17 33.779702 -118.202295 306 5972ft 114kts
12-Aug-17 10:18 33.788857 -118.215916 304 5988ft 113kts
12-Aug-17 10:19 33.798309 -118.230122 304 5998ft 114kts
12-Aug-17 10:20 33.808347 -118.245082 305 5980ft 115kts
12-Aug-17 10:21 33.818155 -118.259722 305 5969ft 115kts
12-Aug-17 10:23 33.829821 -118.277149 305 5968ft 114kts
12-Aug-17 10:24 33.839627 -118.291808 306 5967ft 114kts
12-Aug-17 10:25 33.850291 -118.307762 305 5968ft 114kts
12-Aug-17 10:26 33.860755 -118.323420 306 5969ft 114kts
12-Aug-17 10:27 33.871534 -118.339561 305 5969ft 114kts
12-Aug-17 10:28 33.882187 -118.355521 305 5968ft 114kts
12-Aug-17 10:29 33.891917 -118.370101 305 5969ft 114kts
12-Aug-17 10:30 33.901900 -118.385069 305 5697ft 119kts
12-Aug-17 10:31 33.911909 -118.400080 306 5225ft 121kts
12-Aug-17 10:32 33.922479 -118.415917 306 4731ft 122kts
12-Aug-17 10:33 33.936148 -118.424302 11 4251ft 127kts
12-Aug-17 10:34 33.950262 -118.411362 42 3983ft 112kts
12-Aug-17 10:35 33.961205 -118.399238 41 4002ft 99kts
12-Aug-17 10:36 33.972235 -118.386981 41 4008ft 104kts
12-Aug-17 10:37 33.983569 -118.374400 42 4005ft 107kts
12-Aug-17 10:38 33.995030 -118.361669 41 4004ft 112kts
12-Aug-17 10:39 34.006721 -118.348682 41 4015ft 114kts
12-Aug-17 10:40 34.019200 -118.334938 41 4028ft 114kts
12-Aug-17 10:41 34.031634 -118.321172 41 4030ft 115kts
12-Aug-17 10:42 34.044338 -118.307104 41 4031ft 114kts
12-Aug-17 10:43 34.059130 -118.290703 41 4036ft 124kts
12-Aug-17 10:44 34.074469 -118.273713 41 4033ft 129kts
12-Aug-17 10:45 34.091331 -118.255046 41 4031ft 131kts
12-Aug-17 10:46 34.106872 -118.237843 41 4031ft 131kts
12-Aug-17 10:47 34.121459 -118.221693 41 4031ft 131kts
12-Aug-17 10:48 34.137074 -118.204403 41 4031ft 131kts
12-Aug-17 10:49 34.152039 -118.188003 41 4031ft 130kts
12-Aug-17 10:49 34.166371 -118.180338 346 4028ft 130kts
12-Aug-17 10:50 34.175030 -118.201178 261 4032ft 124kts
12-Aug-17 10:51 34.171387 -118.222112 252 4024ft 123kts
12-Aug-17 10:52 34.164058 -118.240175 242 3989ft 123kts
12-Aug-17 10:53 34.154704 -118.257169 230 3956ft 122kts
12-Aug-17 10:54 34.143579 -118.272564 229 3923ft 121kts
12-Aug-17 10:55 34.132544 -118.287851 229 3887ft 121kts
12-Aug-17 10:56 34.121953 -118.302493 229 3850ft 122kts
12-Aug-17 10:57 34.110490 -118.318356 230 3809ft 123kts
12-Aug-17 10:58 34.099679 -118.333640 230 3695ft 128kts
12-Aug-17 10:59 34.087717 -118.350021 230 3547ft 132kts
12-Aug-17 11:00 34.075968 -118.366233 230 3395ft 134kts
12-Aug-17 11:01 34.064571 -118.383242 233 3029ft 146kts
12-Aug-17 11:02 34.052712 -118.401924 234 2499ft 146kts
12-Aug-17 11:03 34.036335 -118.426482 229 1172ft 167kts
12-Aug-17 11:04 34.020312 -118.446034 226 200ft 115kts
12-Aug-17 11:05 34.012425 -118.455444 211 115ft 35kts

Navigation Log

Ident Type
1. KSNA Airport
2. SLI Navaid
3. AHEIM Fix
4. OLLIE Fix
5. POXKU Fix
6. POXKU Fix
7. PRADO Fix
8. BAYJY Fix
9. BAYJY Fix
10. ADAMM Fix
11. PIRRO Fix
12. ITSME Fix
13. ELMOO Fix
14. PURMS Fix
15. DARTS Fix
16. KSMO Airport